Time;durP1;ratioP1;P1;durP2;ratioP2;P2;SDS_P1;SDS_P2;PMS_P1;PMS_P2;Temp;Humidity;BMP_temperature;BMP_pressure;BME280_temperature;BME280_humidity;BME280_pressure;Samples;Min_cycle;Max_cycle;Signal;HPM_P1;HPM_P2
2021/12/10 00:01:07;;;;;;;31.30;15.73;;;4.80;99.90;;;;;;5041362;28;20351;-68
2021/12/10 00:03:38;;;;;;;37.67;14.70;;;4.80;99.90;;;;;;5039839;28;20188;-68
2021/12/10 00:06:31;;;;;;;34.25;15.85;;;4.70;99.90;;;;;;5038723;28;20065;-68
2021/12/10 00:09:03;;;;;;;39.60;16.05;;;4.70;99.90;;;;;;5042494;28;20033;-68
2021/12/10 00:11:37;;;;;;;39.10;15.50;;;4.70;99.90;;;;;;5036639;28;20037;-68
2021/12/10 00:14:07;;;;;;;36.22;15.30;;;4.60;99.90;;;;;;5040811;28;20192;-68
2021/12/10 00:16:35;;;;;;;31.52;14.70;;;4.60;99.90;;;;;;5041701;28;20037;-67
2021/12/10 00:19:24;;;;;;;33.92;14.73;;;4.60;99.90;;;;;;5040229;28;20033;-67
2021/12/10 00:21:52;;;;;;;28.65;14.45;;;4.50;99.90;;;;;;5034947;28;20296;-67
2021/12/10 00:24:24;;;;;;;30.63;14.52;;;4.50;99.90;;;;;;5037293;28;20116;-66
2021/12/10 00:26:56;;;;;;;30.02;13.40;;;4.60;99.90;;;;;;5021070;28;20481;-66
2021/12/10 00:29:24;;;;;;;28.50;14.15;;;4.60;99.90;;;;;;5038136;28;20044;-66
2021/12/10 00:31:56;;;;;;;30.58;13.80;;;4.60;99.90;;;;;;5012605;28;20053;-68
2021/12/10 00:34:40;;;;;;;37.25;14.57;;;4.60;99.90;;;;;;5012906;28;20041;-65
2021/12/10 00:37:10;;;;;;;38.05;14.18;;;4.60;99.90;;;;;;5033985;28;20037;-65
2021/12/10 00:39:41;;;;;;;29.27;14.68;;;4.60;99.90;;;;;;5033320;28;20028;-66
2021/12/10 00:42:12;;;;;;;31.27;13.48;;;4.70;99.90;;;;;;5012535;28;20417;-66
2021/12/10 00:44:40;;;;;;;35.25;13.70;;;4.70;99.90;;;;;;5029280;28;20363;-66
2021/12/10 00:47:07;;;;;;;26.38;12.77;;;4.70;99.90;;;;;;5024070;28;20029;-66
2021/12/10 00:49:35;;;;;;;30.42;15.15;;;4.70;99.90;;;;;;5040097;28;20164;-66
2021/12/10 00:52:04;;;;;;;32.72;13.27;;;4.70;99.90;;;;;;5029495;28;20053;-65
2021/12/10 00:54:31;;;;;;;24.90;13.43;;;4.60;99.90;;;;;;5016084;28;20136;-66
2021/12/10 00:56:58;;;;;;;34.35;14.77;;;4.70;99.90;;;;;;5017552;28;20504;-66
2021/12/10 00:59:25;;;;;;;36.25;14.57;;;4.70;99.90;;;;;;5006717;28;20045;-66
2021/12/10 01:01:52;;;;;;;33.35;14.55;;;4.70;99.90;;;;;;5016204;28;20117;-66
2021/12/10 01:04:30;;;;;;;35.33;13.65;;;4.70;99.90;;;;;;5032167;28;20044;-66
2021/12/10 01:07:00;;;;;;;31.60;13.90;;;4.70;99.90;;;;;;5035240;28;20124;-67
2021/12/10 01:09:32;;;;;;;25.13;12.43;;;4.70;99.90;;;;;;5042672;28;20116;-67
2021/12/10 01:12:28;;;;;;;27.42;12.55;;;4.70;99.90;;;;;;5038658;28;20490;-67
2021/12/10 01:15:32;;;;;;;28.83;13.93;;;4.70;99.90;;;;;;5018066;28;20044;-66
2021/12/10 01:23:58;;;;;;;28.27;13.27;;;4.70;99.90;;;;;;5009341;28;20166;-67
2021/12/10 01:29:34;;;;;;;27.25;13.25;;;4.60;99.90;;;;;;5015628;28;20342;-67
2021/12/10 01:32:03;;;;;;;28.85;12.50;;;4.60;99.90;;;;;;5037081;28;20390;-67
2021/12/10 01:34:31;;;;;;;28.95;11.50;;;4.50;99.90;;;;;;5013162;28;20782;-67
2021/12/10 01:36:59;;;;;;;32.90;12.68;;;4.50;99.90;;;;;;5033942;28;20033;-67
2021/12/10 01:39:30;;;;;;;26.35;11.98;;;4.50;99.90;;;;;;5029877;28;20126;-67
2021/12/10 01:42:13;;;;;;;22.73;11.48;;;4.40;99.90;;;;;;5012685;28;20459;-67
2021/12/10 01:44:46;;;;;;;23.40;11.38;;;4.40;99.90;;;;;;5039519;28;20040;-67
2021/12/10 01:47:17;;;;;;;24.50;12.07;;;4.40;99.90;;;;;;5023993;28;20082;-68
2021/12/10 01:49:44;;;;;;;25.75;11.30;;;4.50;99.90;;;;;;5038433;28;20116;-73
2021/12/10 01:52:14;;;;;;;28.05;11.43;;;4.50;99.90;;;;;;5030622;28;20367;-67
2021/12/10 01:54:45;;;;;;;24.50;11.77;;;4.50;99.90;;;;;;5039474;28;20477;-69
2021/12/10 01:57:14;;;;;;;27.13;11.63;;;4.40;99.90;;;;;;5041701;28;20450;-68
2021/12/10 01:59:44;;;;;;;23.95;11.45;;;4.50;99.90;;;;;;5032586;28;20040;-66
2021/12/10 02:02:25;;;;;;;29.92;12.23;;;4.50;99.90;;;;;;5034582;28;20044;-70
2021/12/10 02:04:52;;;;;;;29.45;11.00;;;4.50;99.90;;;;;;5031317;28;20160;-70
2021/12/10 02:07:23;;;;;;;22.75;9.77;;;4.50;99.90;;;;;;5040833;28;20040;-70
2021/12/10 02:09:50;;;;;;;24.30;11.18;;;4.50;99.90;;;;;;5011049;28;20052;-70
2021/12/10 02:12:18;;;;;;;;;;;4.50;99.90;;;;;;5028576;28;20068;-70
2021/12/10 02:14:56;;;;;;;;;;;4.50;99.90;;;;;;5035429;28;19967;-71
2021/12/10 02:17:26;;;;;;;20.95;9.63;;;4.50;99.90;;;;;;5019854;28;19921;-67
2021/12/10 02:19:53;;;;;;;23.38;9.93;;;4.50;99.90;;;;;;5012530;28;20521;-69
2021/12/10 02:22:21;;;;;;;28.95;10.52;;;4.50;99.90;;;;;;5014877;28;20040;-69
2021/12/10 02:24:48;;;;;;;20.40;9.02;;;4.60;99.90;;;;;;5021253;28;20029;-68
2021/12/10 02:27:15;;;;;;;30.13;9.05;;;4.50;99.90;;;;;;5036280;28;20037;-69
2021/12/10 02:29:42;;;;;;;18.88;9.35;;;4.60;99.90;;;;;;5016267;28;20044;-68
2021/12/10 02:32:10;;;;;;;20.42;8.90;;;4.50;99.90;;;;;;5022204;28;20520;-69
2021/12/10 02:34:38;;;;;;;23.80;9.57;;;4.60;99.90;;;;;;5037699;28;20116;-68
2021/12/10 02:37:06;;;;;;;24.08;9.15;;;4.60;99.90;;;;;;5026528;28;20090;-67
2021/12/10 02:39:33;;;;;;;19.15;8.57;;;4.50;99.90;;;;;;5016467;28;20045;-67
2021/12/10 02:42:02;;;;;;;20.20;9.38;;;4.50;99.90;;;;;;5026846;28;20076;-67
2021/12/10 02:44:31;;;;;;;32.47;9.80;;;4.60;99.90;;;;;;5034623;28;20053;-68
2021/12/10 02:47:00;;;;;;;21.80;8.88;;;4.60;99.90;;;;;;5041540;28;20147;-69
2021/12/10 02:49:30;;;;;;;23.42;10.02;;;4.50;99.90;;;;;;5043247;28;20326;-68
2021/12/10 02:51:58;;;;;;;20.55;9.10;;;4.60;99.90;;;;;;5036495;28;20080;-66
2021/12/10 02:54:34;;;;;;;19.88;10.38;;;4.60;99.90;;;;;;5044264;28;20127;-67
2021/12/10 02:57:09;;;;;;;23.63;9.32;;;4.60;99.90;;;;;;5017308;28;20063;-69
2021/12/10 02:59:37;;;;;;;22.55;9.15;;;4.60;99.90;;;;;;5042899;28;20053;-68
2021/12/10 03:02:07;;;;;;;24.02;9.77;;;4.60;99.90;;;;;;5026704;28;20044;-66
2021/12/10 03:04:34;;;;;;;21.75;9.15;;;4.60;99.90;;;;;;5043147;28;20042;-67
2021/12/10 03:07:07;;;;;;;20.52;8.38;;;4.60;99.90;;;;;;5041008;28;20038;-66
2021/12/10 03:09:34;;;;;;;21.73;9.57;;;4.60;99.90;;;;;;5020125;28;20045;-65
2021/12/10 03:12:02;;;;;;;23.90;9.32;;;4.60;99.90;;;;;;5036140;28;20045;-67
2021/12/10 03:14:33;;;;;;;24.55;9.70;;;4.60;99.90;;;;;;5019921;28;20077;-66
2021/12/10 03:17:06;;;;;;;15.77;8.85;;;4.60;99.90;;;;;;5036554;28;20095;-67
2021/12/10 03:19:33;;;;;;;22.08;8.57;;;4.60;99.90;;;;;;5023791;28;20477;-67
2021/12/10 03:22:06;;;;;;;23.17;8.93;;;4.50;99.90;;;;;;5041582;28;20144;-66
2021/12/10 03:24:34;;;;;;;19.40;9.52;;;4.60;99.90;;;;;;5040122;28;20041;-69
2021/12/10 03:27:05;;;;;;;19.98;9.15;;;4.50;99.90;;;;;;5020219;28;20041;-66
2021/12/10 03:29:37;;;;;;;19.42;10.52;;;4.50;99.90;;;;;;5070774;22;20068;-87
2021/12/10 03:32:20;;;;;;;18.23;10.10;;;4.50;99.90;;;;;;5017273;28;20520;-86
2021/12/10 03:34:48;;;;;;;27.20;9.52;;;4.50;99.90;;;;;;5020369;23;20114;-72
2021/12/10 03:37:18;;;;;;;20.92;9.77;;;4.50;99.90;;;;;;5040343;28;20155;-72
2021/12/10 03:39:48;;;;;;;20.85;8.65;;;4.40;99.90;;;;;;5054844;28;20036;-71
2021/12/10 03:42:16;;;;;;;17.77;9.10;;;4.50;99.90;;;;;;5054495;28;20052;-73
2021/12/10 03:44:42;;;;;;;19.77;10.18;;;4.50;99.90;;;;;;5054581;28;20036;-71
2021/12/10 03:47:11;;;;;;;18.13;8.67;;;4.50;99.90;;;;;;5035623;28;20500;-71
2021/12/10 03:49:39;;;;;;;22.35;9.57;;;4.40;99.90;;;;;;5039636;28;20044;-72
2021/12/10 03:52:09;;;;;;;24.95;9.02;;;4.40;99.90;;;;;;5036581;28;20541;-71
2021/12/10 03:54:37;;;;;;;19.95;8.15;;;4.40;99.90;;;;;;5063321;28;20036;-71
2021/12/10 03:57:05;;;;;;;19.55;8.45;;;4.40;99.90;;;;;;5037378;28;20370;-72
2021/12/10 03:59:34;;;;;;;20.52;8.63;;;4.30;99.90;;;;;;5038433;28;20044;-72
2021/12/10 04:02:00;;;;;;;17.13;7.88;;;4.30;99.90;;;;;;5041827;28;20265;-72
2021/12/10 04:04:32;;;;;;;22.48;8.88;;;4.30;99.90;;;;;;5054598;28;20556;-71
2021/12/10 04:07:03;;;;;;;19.48;8.75;;;4.20;99.90;;;;;;5056953;28;20163;-72
2021/12/10 04:09:30;;;;;;;19.33;7.45;;;4.20;99.90;;;;;;5053780;28;20044;-72
2021/12/10 04:11:57;;;;;;;16.05;8.02;;;4.20;99.90;;;;;;5035548;28;20037;-71
2021/12/10 04:14:24;;;;;;;27.77;8.00;;;4.20;99.90;;;;;;5055294;28;20041;-72
2021/12/10 04:16:56;;;;;;;17.65;8.00;;;4.20;99.90;;;;;;5041394;28;20033;-72
2021/12/10 04:19:29;;;;;;;16.75;7.97;;;4.10;99.90;;;;;;5035990;28;20473;-72
2021/12/10 04:21:58;;;;;;;15.68;7.60;;;4.10;99.90;;;;;;5039212;28;20103;-71
2021/12/10 04:24:29;;;;;;;14.18;7.22;;;4.10;99.90;;;;;;5034680;28;20037;-72
2021/12/10 04:26:58;;;;;;;17.25;7.85;;;4.00;99.90;;;;;;5052472;28;20044;-72
2021/12/10 04:29:25;;;;;;;15.07;7.82;;;4.00;99.90;;;;;;5041584;28;20421;-72
2021/12/10 04:31:55;;;;;;;16.65;7.72;;;3.90;99.90;;;;;;5053881;28;20443;-72
2021/12/10 04:34:22;;;;;;;14.73;7.47;;;3.90;99.90;;;;;;5039296;28;20037;-72
2021/12/10 04:36:49;;;;;;;14.45;6.72;;;3.80;99.90;;;;;;5053221;28;20047;-72
2021/12/10 04:39:16;;;;;;;20.55;8.00;;;3.80;99.90;;;;;;5054105;28;20036;-72
2021/12/10 04:41:43;;;;;;;16.48;7.13;;;3.70;99.90;;;;;;5057305;28;20051;-72
2021/12/10 04:44:12;;;;;;;17.17;6.95;;;3.70;99.90;;;;;;5041552;28;20094;-72
2021/12/10 04:46:39;;;;;;;23.40;8.35;;;3.60;99.90;;;;;;5056121;28;20772;-71
2021/12/10 04:49:13;;;;;;;15.18;7.10;;;3.60;99.90;;;;;;5038713;28;20492;-71
2021/12/10 04:51:48;;;;;;;14.07;7.20;;;3.50;99.90;;;;;;5042716;28;20025;-72
2021/12/10 04:54:16;;;;;;;20.60;8.63;;;3.50;99.90;;;;;;5037049;28;20033;-72
2021/12/10 04:56:45;;;;;;;21.23;7.20;;;3.40;99.90;;;;;;5051274;28;20060;-71
2021/12/10 04:59:14;;;;;;;21.77;7.90;;;3.40;99.90;;;;;;5038715;28;20041;-72
2021/12/10 05:01:41;;;;;;;14.00;7.05;;;3.40;99.90;;;;;;5057665;28;20047;-72
2021/12/10 05:04:09;;;;;;;15.85;7.45;;;3.30;99.90;;;;;;5060579;28;20228;-72
2021/12/10 05:06:38;;;;;;;16.23;7.75;;;3.30;99.90;;;;;;5029605;28;20117;-72
2021/12/10 05:09:08;;;;;;;13.68;8.13;;;3.20;99.90;;;;;;5052685;28;20545;-72
2021/12/10 05:11:35;;;;;;;16.42;7.45;;;3.20;99.90;;;;;;5059787;28;20029;-72
2021/12/10 05:14:03;;;;;;;15.23;7.60;;;3.20;99.90;;;;;;5059016;28;20040;-72
2021/12/10 05:16:30;;;;;;;18.02;8.35;;;3.10;99.90;;;;;;5036924;28;20044;-72
2021/12/10 05:19:00;;;;;;;20.63;8.52;;;3.10;99.90;;;;;;5037471;28;20323;-71
2021/12/10 05:21:30;;;;;;;19.75;8.43;;;3.00;99.90;;;;;;5034092;28;20064;-72
2021/12/10 05:23:59;;;;;;;20.63;9.00;;;3.00;99.90;;;;;;5033240;28;20040;-73
2021/12/10 05:26:25;;;;;;;18.58;8.30;;;3.00;99.90;;;;;;5024240;28;20044;-72
2021/12/10 05:28:52;;;;;;;17.43;7.70;;;2.90;99.90;;;;;;5045008;28;20051;-72
2021/12/10 05:31:19;;;;;;;17.70;8.90;;;2.90;99.90;;;;;;5052306;28;20076;-71
2021/12/10 05:33:46;;;;;;;16.25;8.18;;;2.90;99.90;;;;;;5037665;28;20501;-72
2021/12/10 05:36:14;;;;;;;25.10;10.95;;;2.90;99.90;;;;;;5035410;28;20036;-71
2021/12/10 05:38:41;;;;;;;22.23;9.57;;;2.80;99.90;;;;;;5037494;28;20541;-72
2021/12/10 05:41:10;;;;;;;20.45;9.48;;;2.80;99.90;;;;;;5036858;28;20041;-71
2021/12/10 05:43:41;;;;;;;21.00;8.85;;;2.80;99.90;;;;;;5044986;28;20388;-71
2021/12/10 05:46:11;;;;;;;23.70;10.75;;;2.80;99.90;;;;;;5035722;28;20040;-71
2021/12/10 05:48:39;;;;;;;25.40;11.02;;;2.70;99.90;;;;;;5034760;28;20544;-72
2021/12/10 05:51:07;;;;;;;19.90;9.65;;;2.70;99.90;;;;;;5032226;28;20075;-71
2021/12/10 05:53:34;;;;;;;23.85;11.55;;;2.80;99.90;;;;;;5037347;28;20041;-72
2021/12/10 05:56:02;;;;;;;20.70;11.15;;;2.70;99.90;;;;;;5053893;28;20370;-71
2021/12/10 05:58:29;;;;;;;19.45;10.63;;;2.70;99.90;;;;;;5053243;28;20056;-72
2021/12/10 06:01:05;;;;;;;26.10;11.63;;;2.70;99.90;;;;;;5036456;28;20043;-71
2021/12/10 06:03:35;;;;;;;21.77;10.63;;;2.80;99.90;;;;;;5053422;28;20132;-71
2021/12/10 06:06:03;;;;;;;23.13;11.25;;;2.70;99.90;;;;;;5034533;28;20071;-72
2021/12/10 06:08:34;;;;;;;18.80;10.88;;;2.70;99.90;;;;;;5025891;28;20080;-71
2021/12/10 06:11:02;;;;;;;22.77;11.40;;;2.70;99.90;;;;;;5045770;28;20046;-72
2021/12/10 06:13:29;;;;;;;20.48;10.32;;;2.70;99.90;;;;;;5057802;28;20044;-71
2021/12/10 06:15:56;;;;;;;21.95;10.85;;;2.70;99.90;;;;;;5054832;28;20028;-72
2021/12/10 06:18:23;;;;;;;23.60;11.55;;;2.70;99.90;;;;;;5056806;28;20489;-71
2021/12/10 06:20:52;;;;;;;23.08;11.45;;;2.70;99.90;;;;;;5049809;28;20121;-71
2021/12/10 06:23:20;;;;;;;20.05;10.85;;;2.70;99.90;;;;;;5061725;28;20040;-72
2021/12/10 06:25:47;;;;;;;21.70;11.10;;;2.70;99.90;;;;;;5041456;28;20035;-71
2021/12/10 06:28:15;;;;;;;21.48;11.40;;;2.60;99.90;;;;;;5055932;28;20028;-72
2021/12/10 06:30:45;;;;;;;23.65;11.85;;;2.60;99.90;;;;;;5058533;28;20040;-71
2021/12/10 06:33:16;;;;;;;23.90;12.18;;;2.60;99.90;;;;;;5055946;28;20459;-71
2021/12/10 06:35:48;;;;;;;22.95;11.63;;;2.60;99.90;;;;;;5038259;28;20271;-71
2021/12/10 06:38:17;;;;;;;26.02;11.80;;;2.50;99.90;;;;;;5039189;28;20037;-72
2021/12/10 06:40:45;;;;;;;22.55;11.25;;;2.50;99.90;;;;;;5037196;28;20081;-72
2021/12/10 06:43:12;;;;;;;21.92;10.93;;;2.50;99.90;;;;;;5042443;28;20044;-72
2021/12/10 06:45:40;;;;;;;25.70;11.55;;;2.50;99.90;;;;;;5059666;28;20051;-72
2021/12/10 06:48:11;;;;;;;22.95;12.65;;;2.50;99.90;;;;;;5060391;28;20044;-72
2021/12/10 06:50:42;;;;;;;25.80;12.25;;;2.50;99.90;;;;;;5040157;28;20125;-72
2021/12/10 06:53:09;;;;;;;24.30;11.43;;;2.50;99.90;;;;;;5043306;28;20500;-72
2021/12/10 06:55:37;;;;;;;22.00;10.73;;;2.40;99.90;;;;;;5060004;28;20599;-72
2021/12/10 06:58:06;;;;;;;20.42;10.55;;;2.40;99.90;;;;;;5047979;28;21775;-72
2021/12/10 07:01:01;;;;;;;21.38;10.02;;;2.40;99.90;;;;;;5057247;28;20047;-72
2021/12/10 07:03:29;;;;;;;21.15;10.77;;;2.40;99.90;;;;;;5031182;28;20044;-72
2021/12/10 07:05:59;;;;;;;25.73;11.65;;;2.40;99.90;;;;;;5047401;28;20048;-73
2021/12/10 07:08:28;;;;;;;19.77;10.70;;;2.40;99.90;;;;;;5020243;28;20044;-73
2021/12/10 07:10:56;;;;;;;20.65;10.98;;;2.30;99.90;;;;;;5034641;28;21374;-72
2021/12/10 07:13:28;;;;;;;19.73;10.32;;;2.30;99.90;;;;;;5034706;28;20182;-71
2021/12/10 07:15:56;;;;;;;22.58;10.55;;;2.30;99.90;;;;;;5033977;28;20142;-71
2021/12/10 07:18:23;;;;;;;19.65;9.23;;;2.30;99.90;;;;;;5040489;28;20044;-71
2021/12/10 07:20:52;;;;;;;20.02;10.30;;;2.30;99.90;;;;;;5061145;28;20044;-72
2021/12/10 07:23:21;;;;;;;21.92;9.65;;;2.20;99.90;;;;;;5036665;28;20036;-72
2021/12/10 07:25:49;;;;;;;23.98;9.52;;;2.20;99.90;;;;;;5061077;28;20036;-72
2021/12/10 07:28:17;;;;;;;20.00;8.90;;;2.20;99.90;;;;;;5040287;28;20044;-72
2021/12/10 07:30:45;;;;;;;19.02;8.88;;;2.20;99.90;;;;;;5028948;28;20059;-73
2021/12/10 07:33:12;;;;;;;16.38;8.23;;;2.20;99.90;;;;;;5034889;28;20083;-71
2021/12/10 07:35:39;;;;;;;17.95;9.35;;;2.10;99.90;;;;;;5039623;28;20040;-72
2021/12/10 07:38:07;;;;;;;16.17;8.35;;;2.20;99.90;;;;;;5060070;28;20040;-71
2021/12/10 07:40:36;;;;;;;18.23;9.48;;;2.20;99.90;;;;;;5062452;28;20036;-72
2021/12/10 07:43:05;;;;;;;18.67;8.80;;;2.10;99.90;;;;;;5038182;28;20541;-71
2021/12/10 07:45:33;;;;;;;14.02;7.20;;;2.10;99.90;;;;;;5038315;28;20050;-72
2021/12/10 07:48:07;;;;;;;15.40;9.13;;;2.10;99.90;;;;;;5041636;28;20041;-72
2021/12/10 07:50:39;;;;;;;15.00;7.65;;;2.10;99.90;;;;;;5028804;28;20052;-72
2021/12/10 07:53:06;;;;;;;16.35;8.02;;;2.10;99.90;;;;;;5028145;28;20700;-72
2021/12/10 07:55:37;;;;;;;17.48;7.20;;;2.10;99.90;;;;;;5049981;28;20773;-72
2021/12/10 07:58:06;;;;;;;17.17;7.97;;;2.10;99.90;;;;;;5027836;28;20466;-71
2021/12/10 08:00:40;;;;;;;15.65;7.85;;;2.10;99.90;;;;;;5028555;28;20251;-72
2021/12/10 08:03:08;;;;;;;15.15;8.00;;;2.10;99.90;;;;;;5052122;28;20040;-72
2021/12/10 08:05:36;;;;;;;13.55;7.88;;;2.10;99.90;;;;;;5043969;28;20049;-73
2021/12/10 08:08:05;;;;;;;15.85;7.90;;;2.10;99.90;;;;;;5042630;28;20775;-71
2021/12/10 08:10:33;;;;;;;15.63;7.38;;;2.10;99.90;;;;;;5057659;28;20075;-71
2021/12/10 08:12:59;;;;;;;16.08;7.65;;;2.00;99.90;;;;;;5039288;28;20097;-73
2021/12/10 08:15:25;;;;;;;15.30;6.93;;;2.10;99.90;;;;;;5038325;28;20036;-72
2021/12/10 08:17:50;;;;;;;11.37;6.60;;;2.10;99.90;;;;;;5038911;28;20479;-72
2021/12/10 08:20:20;;;;;;;18.83;7.20;;;2.10;99.90;;;;;;5046607;28;20032;-71
2021/12/10 08:22:48;;;;;;;12.27;6.60;;;2.10;99.90;;;;;;5059935;28;20169;-72
2021/12/10 08:25:14;;;;;;;14.45;7.15;;;2.10;99.90;;;;;;5042391;28;20048;-72
2021/12/10 08:27:40;;;;;;;16.95;6.18;;;2.00;99.90;;;;;;5060295;28;20366;-72
2021/12/10 08:30:10;;;;;;;15.40;7.43;;;2.10;99.90;;;;;;5031476;28;20036;-72
2021/12/10 08:32:36;;;;;;;12.48;6.80;;;2.10;99.90;;;;;;5037250;28;20045;-71
2021/12/10 08:35:05;;;;;;;16.30;6.38;;;2.10;99.90;;;;;;5058844;28;20109;-72
2021/12/10 08:37:30;;;;;;;13.23;6.72;;;2.10;99.90;;;;;;5047901;28;20040;-71
2021/12/10 08:39:56;;;;;;;13.67;6.97;;;2.10;99.90;;;;;;5045583;28;20040;-71
2021/12/10 08:42:22;;;;;;;13.07;6.63;;;2.10;99.90;;;;;;5035799;28;20220;-72
2021/12/10 08:44:48;;;;;;;11.67;6.13;;;2.20;99.90;;;;;;5028897;28;20314;-72
2021/12/10 08:47:15;;;;;;;12.88;6.70;;;2.20;99.90;;;;;;5029122;28;20199;-72
2021/12/10 08:49:41;;;;;;;12.18;6.40;;;2.20;99.90;;;;;;5053762;28;20550;-72
2021/12/10 08:52:08;;;;;;;;;;;2.20;99.90;;;;;;5060188;28;20048;-72
2021/12/10 08:54:36;;;;;;;12.65;6.65;;;2.20;99.90;;;;;;5041506;28;19924;-71
2021/12/10 08:57:02;;;;;;;12.73;6.75;;;2.20;99.90;;;;;;5052207;28;20052;-71
2021/12/10 08:59:28;;;;;;;12.43;5.68;;;2.20;99.90;;;;;;5043434;28;20033;-71
2021/12/10 09:02:00;;;;;;;16.30;6.50;;;2.20;99.90;;;;;;5055568;28;20041;-72
2021/12/10 09:04:28;;;;;;;12.68;6.35;;;2.20;99.90;;;;;;5059631;28;20032;-72
2021/12/10 09:07:02;;;;;;;13.95;5.55;;;2.20;99.90;;;;;;5059592;28;20046;-72
2021/12/10 09:09:30;;;;;;;11.70;6.15;;;2.20;99.90;;;;;;5056252;28;20040;-72
2021/12/10 09:11:58;;;;;;;13.25;5.78;;;2.30;99.90;;;;;;5035136;28;20037;-71
2021/12/10 09:14:33;;;;;;;13.50;6.00;;;2.30;99.90;;;;;;5058915;28;20032;-71
2021/12/10 09:17:01;;;;;;;13.25;5.93;;;2.30;99.90;;;;;;5039861;28;20500;-71
2021/12/10 09:19:28;;;;;;;11.63;5.80;;;2.30;99.90;;;;;;5021042;28;20041;-72
2021/12/10 09:21:54;;;;;;;10.80;5.18;;;2.40;99.90;;;;;;5062604;28;20311;-72
2021/12/10 09:24:21;;;;;;;12.80;6.13;;;2.40;99.90;;;;;;5032296;28;20048;-72
2021/12/10 09:26:52;;;;;;;11.23;6.00;;;2.40;99.90;;;;;;5038199;28;20056;-72
2021/12/10 09:29:18;;;;;;;10.68;5.43;;;2.50;99.90;;;;;;5045624;28;20170;-71
2021/12/10 09:31:45;;;;;;;15.23;5.75;;;2.50;99.90;;;;;;5026204;28;20584;-71
2021/12/10 09:34:13;;;;;;;15.95;5.82;;;2.50;99.90;;;;;;5042133;28;20044;-71
2021/12/10 09:36:41;;;;;;;12.07;5.65;;;2.60;99.90;;;;;;5031740;28;20395;-72
2021/12/10 09:39:08;;;;;;;13.73;5.38;;;2.70;99.90;;;;;;5037052;28;20095;-71
2021/12/10 09:41:34;;;;;;;13.45;5.63;;;2.60;99.90;;;;;;5038212;28;20048;-72
2021/12/10 09:44:00;;;;;;;12.13;4.87;;;2.70;99.90;;;;;;5038378;28;20481;-71
2021/12/10 09:46:26;;;;;;;10.57;5.70;;;2.80;99.90;;;;;;5054998;28;20031;-71
2021/12/10 09:48:52;;;;;;;11.03;5.00;;;2.90;99.90;;;;;;5034720;28;20075;-72
2021/12/10 09:51:29;;;;;;;11.18;6.15;;;2.90;99.90;;;;;;5049817;28;20053;-71
2021/12/10 09:54:00;;;;;;;12.63;5.50;;;3.00;99.90;;;;;;5045415;28;20052;-72
2021/12/10 09:56:26;;;;;;;10.10;5.20;;;3.10;99.90;;;;;;5043583;28;20120;-72
2021/12/10 09:58:53;;;;;;;10.85;5.43;;;3.10;99.90;;;;;;5058763;28;20032;-71
2021/12/10 10:01:24;;;;;;;12.48;4.82;;;3.20;99.90;;;;;;5037254;28;20566;-73
2021/12/10 10:03:55;;;;;;;9.75;5.22;;;3.20;99.90;;;;;;5046807;28;20362;-72
2021/12/10 10:06:20;;;;;;;7.40;4.47;;;3.30;99.90;;;;;;5026607;28;20058;-71
2021/12/10 10:08:46;;;;;;;9.87;4.90;;;3.30;99.90;;;;;;5045318;28;20169;-71
2021/12/10 10:11:17;;;;;;;15.00;5.90;;;3.40;99.90;;;;;;5036753;28;20497;-72
2021/12/10 10:13:46;;;;;;;8.63;5.30;;;3.50;99.90;;;;;;5055050;28;20044;-71
2021/12/10 10:16:13;;;;;;;10.95;5.60;;;3.50;99.90;;;;;;5041651;28;20462;-71
2021/12/10 10:18:40;;;;;;;;;;;3.60;99.90;;;;;;5047958;28;20040;-71
2021/12/10 10:21:21;;;;;;;9.25;4.78;;;3.60;99.90;;;;;;5027462;28;19962;-72
2021/12/10 10:23:50;;;;;;;8.90;4.72;;;3.70;99.90;;;;;;5041097;28;20183;-71
2021/12/10 10:26:20;;;;;;;11.13;4.82;;;3.70;99.90;;;;;;5045497;28;20289;-71
2021/12/10 10:28:47;;;;;;;10.15;5.00;;;3.80;99.90;;;;;;5062157;28;20040;-71
2021/12/10 10:31:19;;;;;;;12.25;4.93;;;3.90;99.90;;;;;;5059467;28;20037;-72
2021/12/10 10:33:49;;;;;;;11.32;5.18;;;3.90;99.90;;;;;;5048151;28;20041;-71
2021/12/10 10:36:21;;;;;;;10.00;4.90;;;3.90;99.90;;;;;;5041993;28;20055;-72
2021/12/10 10:38:55;;;;;;;8.70;3.85;;;4.00;99.90;;;;;;5057969;28;20032;-71
2021/12/10 10:41:24;;;;;;;10.55;4.40;;;4.10;99.90;;;;;;5040438;28;20106;-72
2021/12/10 10:43:50;;;;;;;7.18;4.22;;;4.10;99.90;;;;;;5060504;28;20044;-71
2021/12/10 10:46:16;;;;;;;10.63;4.78;;;4.20;99.90;;;;;;5040671;28;20550;-72
2021/12/10 10:48:48;;;;;;;8.63;4.10;;;4.20;99.90;;;;;;5057560;28;20036;-71
2021/12/10 10:51:17;;;;;;;9.65;5.35;;;4.30;99.90;;;;;;5035914;28;20155;-72
2021/12/10 10:53:47;;;;;;;10.70;3.67;;;4.30;99.90;;;;;;5062669;28;20055;-71
2021/12/10 10:56:17;;;;;;;11.10;4.25;;;4.30;99.90;;;;;;5058286;28;20044;-72
2021/12/10 10:58:55;;;;;;;10.32;4.50;;;4.30;99.90;;;;;;5062183;28;20040;-71
2021/12/10 11:01:31;;;;;;;9.05;3.70;;;4.40;99.90;;;;;;5032056;23;20103;-68
2021/12/10 11:04:08;;;;;;;7.03;3.53;;;4.40;99.90;;;;;;4996555;28;20049;-69
2021/12/10 11:06:43;;;;;;;7.90;3.78;;;4.40;99.90;;;;;;4994868;28;20124;-68
2021/12/10 11:09:18;;;;;;;9.57;3.83;;;4.50;99.90;;;;;;5003671;28;20105;-68
2021/12/10 11:11:51;;;;;;;9.25;3.55;;;4.50;99.90;;;;;;5014662;28;20466;-69
2021/12/10 11:14:20;;;;;;;5.78;3.53;;;4.60;99.90;;;;;;4997721;28;20029;-68
2021/12/10 11:16:51;;;;;;;10.38;4.90;;;4.60;99.90;;;;;;4997866;28;20068;-68
2021/12/10 11:19:25;;;;;;;9.13;5.22;;;4.60;99.90;;;;;;4982837;28;20048;-69
2021/12/10 11:21:58;;;;;;;6.57;3.90;;;4.60;99.90;;;;;;5006104;28;20045;-68
2021/12/10 11:24:55;;;;;;;6.75;4.03;;;4.70;99.90;;;;;;5002441;28;20083;-69
2021/12/10 11:27:28;;;;;;;6.82;3.80;;;4.70;99.90;;;;;;4992486;28;20132;-68
2021/12/10 11:29:56;;;;;;;8.93;3.53;;;4.80;99.90;;;;;;4984103;28;20068;-70
2021/12/10 11:32:36;;;;;;;10.45;3.22;;;4.80;99.90;;;;;;4973426;28;20486;-72
2021/12/10 11:35:35;;;;;;;5.72;3.17;;;4.80;99.90;;;;;;4987695;28;20038;-68
2021/12/10 11:38:16;;;;;;;9.63;3.47;;;4.90;99.90;;;;;;4989724;28;20038;-70
2021/12/10 11:41:23;;;;;;;6.18;3.13;;;4.90;99.90;;;;;;4987594;28;20046;-69
2021/12/10 11:44:27;;;;;;;8.90;3.05;;;4.90;99.90;;;;;;4956152;28;20058;-69
2021/12/10 11:49:39;;;;;;;7.75;3.15;;;4.90;99.90;;;;;;4991998;28;20057;-72
2021/12/10 11:52:17;;;;;;;8.00;3.13;;;4.90;99.90;;;;;;4974875;28;20506;-68
2021/12/10 11:55:07;;;;;;;10.27;4.50;;;4.90;99.90;;;;;;4993216;28;20052;-68
2021/12/10 11:57:37;;;;;;;9.00;3.42;;;4.90;99.90;;;;;;4983529;28;20045;-76
2021/12/10 12:00:12;;;;;;;10.10;3.60;;;5.00;99.90;;;;;;4981799;28;20048;-72
2021/12/10 12:02:58;;;;;;;7.82;3.65;;;5.10;99.90;;;;;;4981921;28;20125;-69
2021/12/10 12:05:30;;;;;;;8.85;3.15;;;5.20;99.90;;;;;;5004681;28;20044;-68
2021/12/10 12:08:00;;;;;;;8.13;3.78;;;5.30;99.90;;;;;;4971215;28;20045;-69
2021/12/10 12:10:38;;;;;;;8.23;3.60;;;5.30;99.90;;;;;;4995234;28;20403;-68
2021/12/10 12:13:32;;;;;;;7.47;3.15;;;5.30;99.90;;;;;;4975134;28;20063;-69
2021/12/10 12:16:13;;;;;;;7.88;3.58;;;5.40;99.90;;;;;;4972024;28;20576;-69
2021/12/10 12:18:46;;;;;;;8.07;3.20;;;5.40;99.90;;;;;;4967484;28;20128;-69
2021/12/10 12:27:09;;;;;;;12.15;2.88;;;5.50;99.90;;;;;;4997182;28;20222;-68
2021/12/10 12:30:02;;;;;;;9.68;3.40;;;5.50;99.90;;;;;;5004995;28;20033;-69
2021/12/10 12:32:37;;;;;;;8.45;3.83;;;5.60;99.90;;;;;;4978657;28;20053;-69
2021/12/10 12:35:33;;;;;;;11.57;3.78;;;5.60;99.90;;;;;;4992924;28;20062;-68
2021/12/10 12:38:15;;;;;;;5.63;3.28;;;5.60;99.90;;;;;;4977024;28;20646;-69
2021/12/10 12:40:44;;;;;;;7.78;3.47;;;5.60;99.90;;;;;;4991201;28;20127;-69
2021/12/10 12:43:10;;;;;;;8.63;3.28;;;5.60;99.90;;;;;;4978817;28;20081;-68
2021/12/10 12:45:38;;;;;;;7.37;2.87;;;5.50;99.90;;;;;;4999699;28;20451;-69
2021/12/10 12:48:10;;;;;;;6.70;3.03;;;5.50;99.90;;;;;;4999494;28;20034;-68
2021/12/10 12:50:37;;;;;;;4.80;2.85;;;5.50;99.90;;;;;;4985898;28;20041;-68
2021/12/10 12:53:21;;;;;;;7.88;2.95;;;5.40;99.90;;;;;;4988553;28;20610;-68
2021/12/10 12:55:58;;;;;;;6.57;2.58;;;5.40;99.90;;;;;;4982847;28;20042;-69
2021/12/10 12:58:29;;;;;;;9.40;3.15;;;5.40;99.90;;;;;;4977002;28;20042;-69
2021/12/10 13:01:10;;;;;;;8.70;3.40;;;5.40;99.90;;;;;;4979417;28;20049;-69
2021/12/10 13:03:43;;;;;;;7.50;2.80;;;5.30;99.90;;;;;;4973607;28;20515;-68
2021/12/10 13:06:20;;;;;;;6.45;3.22;;;5.30;99.90;;;;;;4980396;28;20041;-69
2021/12/10 13:09:07;;;;;;;5.88;2.88;;;5.30;99.90;;;;;;5007963;28;20041;-69
2021/12/10 13:11:53;;;;;;;5.43;2.45;;;5.30;99.90;;;;;;4992063;28;20052;-68
2021/12/10 13:14:22;;;;;;;6.85;3.38;;;5.30;99.90;;;;;;5003892;28;20517;-68
2021/12/10 13:16:53;;;;;;;7.90;3.08;;;5.30;99.90;;;;;;4980801;28;20518;-69
2021/12/10 13:19:30;;;;;;;5.53;2.47;;;5.30;99.90;;;;;;4990734;28;20037;-68
2021/12/10 13:22:02;;;;;;;11.05;2.60;;;5.20;99.90;;;;;;4990336;28;20490;-68
2021/12/10 13:24:28;;;;;;;7.45;2.70;;;5.20;99.90;;;;;;4976175;28;20044;-68